createdAt,value
2024-02-18T00:01:31.577Z,1.50
2024-02-18T00:04:06.297Z,2.10
2024-02-18T00:06:40.319Z,1.80
2024-02-18T00:09:14.057Z,1.70
2024-02-18T00:11:48.232Z,2.00
2024-02-18T00:14:23.154Z,2.10
2024-02-18T00:16:56.498Z,1.90
2024-02-18T00:19:33.196Z,2.00
2024-02-18T00:22:08.969Z,2.50
2024-02-18T00:24:42.444Z,2.00
2024-02-18T00:27:15.905Z,1.90
2024-02-18T00:29:49.521Z,1.80
2024-02-18T00:32:22.963Z,2.00
2024-02-18T00:34:58.307Z,1.90
2024-02-18T00:37:33.133Z,2.50
2024-02-18T00:40:10.034Z,2.20
2024-02-18T00:42:45.112Z,2.50
2024-02-18T00:45:29.415Z,2.60
2024-02-18T00:48:04.354Z,2.10
2024-02-18T00:50:41.923Z,2.10
2024-02-18T00:53:15.435Z,2.20
2024-02-18T00:55:49.350Z,2.10
2024-02-18T00:58:23.410Z,2.10
2024-02-18T01:00:56.960Z,1.90
2024-02-18T01:03:30.786Z,1.50
2024-02-18T01:06:07.271Z,2.30
2024-02-18T01:08:40.880Z,1.70
2024-02-18T01:11:14.571Z,1.90
2024-02-18T01:13:47.926Z,2.30
2024-02-18T01:16:21.356Z,1.90
2024-02-18T01:18:55.723Z,2.30
2024-02-18T01:21:29.155Z,2.10
2024-02-18T01:24:02.893Z,2.10
2024-02-18T01:26:39.608Z,2.00
2024-02-18T01:29:13.423Z,2.10
2024-02-18T01:31:47.348Z,1.80
2024-02-18T01:34:24.034Z,1.80
2024-02-18T01:36:57.727Z,2.00
2024-02-18T01:39:31.076Z,2.30
2024-02-18T01:42:04.478Z,2.10
2024-02-18T01:44:39.200Z,2.40
2024-02-18T01:47:13.048Z,2.00
2024-02-18T01:49:46.733Z,1.80
2024-02-18T01:52:20.996Z,1.50
2024-02-18T01:54:54.600Z,1.80
2024-02-18T01:57:29.547Z,2.20
2024-02-18T02:00:09.480Z,1.80
2024-02-18T02:02:46.144Z,2.20
2024-02-18T02:05:20.832Z,1.80
2024-02-18T02:07:54.034Z,2.10
2024-02-18T02:10:27.130Z,1.90
2024-02-18T02:13:00.472Z,1.50
2024-02-18T02:15:34.026Z,2.00
2024-02-18T02:18:12.912Z,2.00
2024-02-18T02:20:46.510Z,2.00
2024-02-18T02:23:19.935Z,2.30
2024-02-18T02:25:53.355Z,1.90
2024-02-18T02:28:34.167Z,2.20
2024-02-18T02:31:10.139Z,2.40
2024-02-18T02:33:43.283Z,1.70
2024-02-18T02:36:16.736Z,1.90
2024-02-18T02:38:50.058Z,1.80
2024-02-18T02:41:23.284Z,2.30
2024-02-18T02:43:56.403Z,2.20
2024-02-18T02:46:30.810Z,2.00
2024-02-18T02:49:03.912Z,2.00
2024-02-18T02:51:41.571Z,2.30
2024-02-18T02:54:14.895Z,2.40
2024-02-18T02:56:50.394Z,2.20
2024-02-18T02:59:24.009Z,2.00
2024-02-18T03:01:58.481Z,2.00
2024-02-18T03:04:36.473Z,2.10
2024-02-18T03:07:13.485Z,2.50
2024-02-18T03:09:51.737Z,2.50
2024-02-18T03:12:25.498Z,2.10
2024-02-18T03:14:59.897Z,2.10
2024-02-18T03:17:33.085Z,2.40
2024-02-18T03:20:13.590Z,2.20
2024-02-18T03:22:46.873Z,2.60
2024-02-18T03:25:22.337Z,2.90
2024-02-18T03:27:55.517Z,2.50
2024-02-18T03:30:29.262Z,2.00
2024-02-18T03:33:02.337Z,2.40
2024-02-18T03:35:41.945Z,2.30
2024-02-18T03:38:15.055Z,2.50
2024-02-18T03:40:48.261Z,2.20
2024-02-18T03:43:21.397Z,2.30
2024-02-18T03:45:54.550Z,2.30
2024-02-18T03:48:28.029Z,2.30
2024-02-18T03:51:01.249Z,2.10
2024-02-18T03:53:38.656Z,2.20
2024-02-18T03:56:13.256Z,2.10
2024-02-18T03:58:49.743Z,1.90
2024-02-18T04:01:26.875Z,1.50
2024-02-18T04:04:00.261Z,1.10
2024-02-18T04:06:33.446Z,2.00
2024-02-18T04:09:12.975Z,2.20
2024-02-18T04:11:46.723Z,1.70
2024-02-18T04:14:19.992Z,1.80
2024-02-18T04:16:55.294Z,1.90
2024-02-18T04:19:28.310Z,1.70
2024-02-18T04:22:02.041Z,1.50
2024-02-18T04:24:37.422Z,1.70
2024-02-18T04:27:11.433Z,1.60
2024-02-18T04:29:44.633Z,1.90
2024-02-18T04:32:17.579Z,1.70
2024-02-18T04:34:55.721Z,1.80
2024-02-18T04:37:29.693Z,1.40
2024-02-18T04:40:05.171Z,1.90
2024-02-18T04:42:47.137Z,1.80
2024-02-18T04:45:24.581Z,1.80
2024-02-18T04:47:57.720Z,1.80
2024-02-18T04:50:31.360Z,1.70
2024-02-18T04:53:04.404Z,1.70
2024-02-18T04:55:48.265Z,1.90
2024-02-18T04:58:21.521Z,1.90
2024-02-18T05:00:54.728Z,1.80
2024-02-18T05:03:27.837Z,1.70
2024-02-18T05:06:01.037Z,2.10
2024-02-18T05:08:34.200Z,1.70
2024-02-18T05:11:12.607Z,1.80
2024-02-18T05:13:51.315Z,2.00
2024-02-18T05:16:24.336Z,2.10
2024-02-18T05:19:01.964Z,1.80
2024-02-18T05:21:37.486Z,1.80
2024-02-18T05:24:10.860Z,1.70
2024-02-18T05:26:43.902Z,1.40
2024-02-18T05:29:17.114Z,1.80
2024-02-18T05:31:50.476Z,1.50
2024-02-18T05:34:23.942Z,1.60
2024-02-18T05:36:57.190Z,1.70
2024-02-18T05:39:30.342Z,1.60
2024-02-18T05:42:09.284Z,1.80
2024-02-18T05:44:46.909Z,1.90
2024-02-18T05:47:20.067Z,1.90
2024-02-18T05:49:53.753Z,1.90
2024-02-18T05:52:26.929Z,1.90
2024-02-18T05:55:07.804Z,2.20
2024-02-18T05:57:42.740Z,1.70
2024-02-18T06:00:19.174Z,2.10
2024-02-18T06:02:56.493Z,2.10
2024-02-18T06:05:29.657Z,2.40
2024-02-18T06:08:03.391Z,2.50
2024-02-18T06:10:38.959Z,2.30
2024-02-18T06:13:12.322Z,2.10
2024-02-18T06:15:45.502Z,2.20
2024-02-18T06:18:22.823Z,2.00
2024-02-18T06:20:56.134Z,2.00
2024-02-18T06:23:29.262Z,2.00
2024-02-18T06:26:08.681Z,1.80
2024-02-18T06:28:43.349Z,1.90
2024-02-18T06:31:21.041Z,2.40
2024-02-18T06:33:54.046Z,2.40
2024-02-18T06:36:28.994Z,2.20
2024-02-18T06:39:03.208Z,2.40
2024-02-18T06:41:38.561Z,1.90
2024-02-18T06:44:13.120Z,2.20
2024-02-18T06:46:53.147Z,2.00
2024-02-18T06:49:26.224Z,1.40
2024-02-18T06:52:00.084Z,2.00
2024-02-18T06:54:33.383Z,2.10
2024-02-18T06:57:15.949Z,2.10
2024-02-18T06:59:52.779Z,2.70
2024-02-18T07:02:26.755Z,2.30
2024-02-18T07:05:13.716Z,1.90
2024-02-18T07:07:52.827Z,2.10
2024-02-18T07:10:26.679Z,2.50
2024-02-18T07:13:00.190Z,2.70
2024-02-18T07:15:39.548Z,2.70
2024-02-18T07:18:13.320Z,2.30
2024-02-18T07:21:12.105Z,2.60
2024-02-18T07:23:45.942Z,2.70
2024-02-18T07:26:20.655Z,2.70
2024-02-18T07:28:58.619Z,2.40
2024-02-18T07:31:36.266Z,2.40
2024-02-18T07:34:12.264Z,2.20
2024-02-18T07:36:48.779Z,2.80
2024-02-18T07:39:25.812Z,2.90
2024-02-18T07:41:59.299Z,2.60
2024-02-18T07:44:49.418Z,2.50
2024-02-18T07:47:29.259Z,2.10
2024-02-18T07:50:02.630Z,2.40
2024-02-18T07:52:39.365Z,2.40
2024-02-18T07:55:13.303Z,3.00
2024-02-18T07:57:50.929Z,2.90
2024-02-18T08:00:29.245Z,2.30
2024-02-18T08:03:10.744Z,3.10
2024-02-18T08:05:44.052Z,2.80
2024-02-18T08:08:17.052Z,2.80
2024-02-18T08:10:49.999Z,3.00
2024-02-18T08:13:23.206Z,2.70
2024-02-18T08:16:13.640Z,2.50
2024-02-18T08:18:52.969Z,2.70
2024-02-18T08:21:27.805Z,2.80
2024-02-18T08:24:07.642Z,2.70
2024-02-18T08:26:42.738Z,2.80
2024-02-18T08:29:17.182Z,3.10
2024-02-18T08:31:50.695Z,2.80
2024-02-18T08:34:26.328Z,2.90
2024-02-18T08:37:01.685Z,4.30
2024-02-18T08:39:59.893Z,3.60
2024-02-18T08:42:39.221Z,3.00
2024-02-18T08:45:14.724Z,11.80
2024-02-18T08:47:49.822Z,6.80
2024-02-18T08:50:28.110Z,8.30
2024-02-18T08:53:07.051Z,4.90
2024-02-18T08:55:43.519Z,3.40
2024-02-18T08:58:17.278Z,3.00
2024-02-18T09:00:52.055Z,3.10
2024-02-18T09:03:25.401Z,3.60
2024-02-18T09:06:00.307Z,3.10
2024-02-18T09:08:42.816Z,2.70
2024-02-18T09:11:17.431Z,2.80
2024-02-18T09:13:51.956Z,3.00
2024-02-18T09:16:28.596Z,2.60
2024-02-18T09:19:02.115Z,6.80
2024-02-18T09:21:37.810Z,4.50
2024-02-18T09:24:12.449Z,3.50
2024-02-18T09:26:48.464Z,3.20
2024-02-18T09:29:22.448Z,4.10
2024-02-18T09:31:56.522Z,4.30
2024-02-18T09:34:33.067Z,3.60
2024-02-18T09:37:10.802Z,3.10
2024-02-18T09:39:46.366Z,2.90
2024-02-18T09:42:21.799Z,3.10
2024-02-18T09:45:03.399Z,2.70
2024-02-18T09:47:42.782Z,2.90
2024-02-18T09:50:19.147Z,3.50
2024-02-18T09:53:05.984Z,4.60
2024-02-18T09:55:45.465Z,4.60
2024-02-18T09:58:20.870Z,3.10
2024-02-18T10:00:59.753Z,3.50
2024-02-18T10:03:38.254Z,3.60
2024-02-18T10:06:15.481Z,3.40
2024-02-18T10:08:56.781Z,3.20
2024-02-18T10:11:37.076Z,3.00
2024-02-18T10:14:12.434Z,3.40
2024-02-18T10:16:48.483Z,3.90
2024-02-18T10:19:39.131Z,3.00
2024-02-18T10:22:15.799Z,3.70
2024-02-18T10:24:52.386Z,4.00
2024-02-18T10:27:29.220Z,3.80
2024-02-18T10:30:08.707Z,4.10
2024-02-18T10:32:43.348Z,3.60
2024-02-18T10:35:17.406Z,3.80
2024-02-18T10:37:59.793Z,5.00
2024-02-18T10:40:44.311Z,3.70
2024-02-18T10:43:30.868Z,3.80
2024-02-18T10:46:16.802Z,4.10
2024-02-18T10:48:58.271Z,4.70
2024-02-18T10:51:40.422Z,4.30
2024-02-18T10:54:30.926Z,4.10
2024-02-18T10:57:16.031Z,4.10
2024-02-18T11:00:03.659Z,5.00
2024-02-18T11:02:46.114Z,5.30
2024-02-18T11:05:37.176Z,4.40
2024-02-18T11:08:22.463Z,4.00
2024-02-18T11:11:01.528Z,4.40
2024-02-18T11:13:44.839Z,5.50
2024-02-18T11:16:29.477Z,4.40
2024-02-18T11:19:14.557Z,4.70
2024-02-18T11:21:54.014Z,5.30
2024-02-18T11:24:34.256Z,5.00
2024-02-18T11:27:14.625Z,4.80
2024-02-18T11:29:56.916Z,4.00
2024-02-18T11:32:40.675Z,4.40
2024-02-18T11:35:22.029Z,4.80
2024-02-18T11:37:57.014Z,4.70
2024-02-18T11:40:39.566Z,4.70
2024-02-18T11:43:19.332Z,4.80
2024-02-18T11:45:59.911Z,4.90
2024-02-18T11:48:34.018Z,5.30
2024-02-18T11:51:12.998Z,5.30
2024-02-18T11:53:50.533Z,4.70
2024-02-18T11:56:25.699Z,4.90
2024-02-18T11:58:59.456Z,5.10
2024-02-18T12:01:38.192Z,4.80
2024-02-18T12:04:15.763Z,4.70
2024-02-18T12:06:53.597Z,5.00
2024-02-18T12:09:30.359Z,4.50
2024-02-18T12:12:10.852Z,4.80
2024-02-18T12:15:16.066Z,4.50
2024-02-18T12:17:55.162Z,4.80
2024-02-18T12:20:33.212Z,4.10
2024-02-18T12:23:14.358Z,4.30
2024-02-18T12:25:48.260Z,4.90
2024-02-18T12:28:23.515Z,4.50
2024-02-18T12:30:57.362Z,4.50
2024-02-18T12:33:33.269Z,4.80
2024-02-18T12:36:11.937Z,5.40
2024-02-18T12:38:53.624Z,5.10
2024-02-18T12:41:33.139Z,4.50
2024-02-18T12:44:43.705Z,4.50
2024-02-18T12:47:03.015Z,5.10
2024-02-18T12:49:41.949Z,5.00
2024-02-18T12:52:21.586Z,5.40
2024-02-18T12:55:08.608Z,4.30
2024-02-18T12:57:43.022Z,5.20
2024-02-18T13:00:21.430Z,4.70
2024-02-18T13:02:58.848Z,4.80
2024-02-18T13:05:33.752Z,4.90
2024-02-18T13:08:12.271Z,5.30
2024-02-18T13:10:48.827Z,3.90
2024-02-18T13:13:22.751Z,5.00
2024-02-18T13:15:59.037Z,4.70
2024-02-18T13:18:44.496Z,4.60
2024-02-18T13:21:19.430Z,4.40
2024-02-18T13:23:56.635Z,4.70
2024-02-18T13:26:31.983Z,4.60
2024-02-18T13:29:07.794Z,4.70
2024-02-18T13:31:43.959Z,3.90
2024-02-18T13:34:20.566Z,5.10
2024-02-18T13:36:58.331Z,5.10
2024-02-18T13:39:32.424Z,5.10
2024-02-18T13:42:11.744Z,4.70
2024-02-18T13:44:47.004Z,5.20
2024-02-18T13:47:22.959Z,4.60
2024-02-18T13:50:04.995Z,5.10
2024-02-18T13:52:45.099Z,4.30
2024-02-18T13:55:21.089Z,6.10
2024-02-18T13:57:54.808Z,5.40
2024-02-18T14:00:32.829Z,4.50
2024-02-18T14:03:12.269Z,5.90
2024-02-18T14:05:46.911Z,5.70
2024-02-18T14:08:22.153Z,6.30
2024-02-18T14:10:55.566Z,4.80
2024-02-18T14:13:31.240Z,5.50
2024-02-18T14:16:09.098Z,5.60
2024-02-18T14:18:43.527Z,6.10
2024-02-18T14:21:19.230Z,5.00
2024-02-18T14:23:56.288Z,5.10
2024-02-18T14:26:30.499Z,5.20
2024-02-18T14:29:09.101Z,4.70
2024-02-18T14:31:43.652Z,5.80
2024-02-18T14:34:17.920Z,4.60
2024-02-18T14:40:20.172Z,5.00
2024-02-18T14:42:54.517Z,5.20
2024-02-18T14:45:32.852Z,6.10
2024-02-18T14:48:10.141Z,4.80
2024-02-18T14:50:47.073Z,5.50
2024-02-18T14:53:24.094Z,5.00
2024-02-18T14:56:03.659Z,4.30
2024-02-18T14:58:42.615Z,5.20
2024-02-18T15:01:24.174Z,4.50
2024-02-18T15:04:27.362Z,5.40
2024-02-18T15:07:20.303Z,5.20
2024-02-18T15:12:55.022Z,4.70
2024-02-18T15:15:33.240Z,4.50
2024-02-18T15:18:15.567Z,4.70
2024-02-18T15:20:53.153Z,5.30
2024-02-18T15:23:27.170Z,4.70
2024-02-18T15:26:01.491Z,5.40
2024-02-18T15:28:38.780Z,4.90
2024-02-18T15:31:13.964Z,4.50
2024-02-18T15:33:48.766Z,4.30
2024-02-18T15:36:29.587Z,4.90
2024-02-18T15:39:06.190Z,5.40
2024-02-18T15:41:44.701Z,5.40
2024-02-18T15:44:24.290Z,4.10
2024-02-18T15:47:04.318Z,6.00
2024-02-18T15:49:44.001Z,5.60
2024-02-18T15:52:18.651Z,5.30
2024-02-18T15:55:00.902Z,5.20
2024-02-18T15:57:56.176Z,5.10
2024-02-18T16:00:33.632Z,3.80
2024-02-18T16:03:22.855Z,5.70
2024-02-18T16:06:14.966Z,5.50
2024-02-18T16:08:59.444Z,5.80
2024-02-18T16:11:49.374Z,6.10
2024-02-18T16:14:50.589Z,5.60
2024-02-18T16:17:38.878Z,5.20
2024-02-18T16:20:28.290Z,5.60
2024-02-18T16:23:08.911Z,5.30
2024-02-18T16:26:11.716Z,6.10
2024-02-18T16:29:09.919Z,6.30
2024-02-18T16:32:16.234Z,6.60
2024-02-18T16:34:52.029Z,6.80
2024-02-18T16:37:27.796Z,6.40
2024-02-18T16:40:02.236Z,6.80
2024-02-18T16:42:38.247Z,8.00
2024-02-18T16:45:14.441Z,7.10
2024-02-18T16:47:49.241Z,7.10
2024-02-18T16:50:39.155Z,7.60
2024-02-18T16:53:14.582Z,7.40
2024-02-18T16:55:49.364Z,7.30
2024-02-18T16:58:23.618Z,6.10
2024-02-18T17:00:58.688Z,6.90
2024-02-18T17:03:37.998Z,7.20
2024-02-18T17:06:14.941Z,6.50
2024-02-18T17:08:50.433Z,7.20
2024-02-18T17:11:23.816Z,7.30
2024-02-18T17:13:59.128Z,7.50
2024-02-18T17:16:38.025Z,7.80
2024-02-18T17:19:19.020Z,7.40
2024-02-18T17:21:56.748Z,7.90
2024-02-18T17:24:32.039Z,7.10
2024-02-18T17:27:14.232Z,7.50
2024-02-18T17:30:08.398Z,8.80
2024-02-18T17:32:46.688Z,7.30
2024-02-18T17:35:22.204Z,6.80
2024-02-18T17:37:57.841Z,7.10
2024-02-18T17:40:32.691Z,8.10
2024-02-18T17:43:10.962Z,6.50
2024-02-18T17:45:51.729Z,6.90
2024-02-18T17:48:26.363Z,6.60
2024-02-18T17:51:01.871Z,7.60
2024-02-18T17:53:38.448Z,6.70
2024-02-18T17:56:16.149Z,6.50
2024-02-18T17:59:18.739Z,6.40
2024-02-18T18:01:52.976Z,6.70
2024-02-18T18:04:47.287Z,6.30
2024-02-18T18:07:23.593Z,6.90
2024-02-18T18:09:57.435Z,6.20
2024-02-18T18:12:31.974Z,7.50
2024-02-18T18:15:09.138Z,7.00
2024-02-18T18:17:58.926Z,7.50
2024-02-18T18:20:33.590Z,8.50
2024-02-18T18:23:09.069Z,7.60
2024-02-18T18:25:43.656Z,7.20
2024-02-18T18:28:17.999Z,7.20
2024-02-18T18:30:52.030Z,7.60
2024-02-18T18:33:27.722Z,7.90
2024-02-18T18:36:05.115Z,7.30
2024-02-18T18:38:44.184Z,12.00
2024-02-18T18:41:19.708Z,7.00
2024-02-18T18:44:13.873Z,6.60
2024-02-18T18:46:50.155Z,7.30
2024-02-18T18:49:24.304Z,7.70
2024-02-18T18:52:02.615Z,7.90
2024-02-18T18:54:42.041Z,7.80
2024-02-18T18:57:22.240Z,7.10
2024-02-18T18:59:55.997Z,8.20
2024-02-18T19:02:31.185Z,7.80
2024-02-18T19:05:13.411Z,7.80
2024-02-18T19:08:04.185Z,7.90
2024-02-18T19:10:43.110Z,7.10
2024-02-18T19:13:31.308Z,7.30
2024-02-18T19:16:18.925Z,8.20
2024-02-18T19:18:56.378Z,8.40
2024-02-18T19:21:40.773Z,8.30
2024-02-18T19:24:17.559Z,9.20
2024-02-18T19:26:57.052Z,8.90
2024-02-18T19:29:34.238Z,8.50
2024-02-18T19:32:15.069Z,8.10
2024-02-18T19:34:49.460Z,8.50
2024-02-18T19:37:24.145Z,9.00
2024-02-18T19:40:00.131Z,8.40
2024-02-18T19:42:37.970Z,9.40
2024-02-18T19:45:14.047Z,8.00
2024-02-18T19:47:51.340Z,7.80
2024-02-18T19:50:27.014Z,8.80
2024-02-18T19:53:03.001Z,7.80
2024-02-18T19:55:40.691Z,8.50
2024-02-18T19:58:16.158Z,8.40
2024-02-18T20:00:50.424Z,8.60
2024-02-18T20:03:27.334Z,9.30
2024-02-18T20:06:03.347Z,9.60
2024-02-18T20:08:42.783Z,10.00
2024-02-18T20:11:17.787Z,9.30
2024-02-18T20:13:53.294Z,9.10
2024-02-18T20:16:30.155Z,6.90
2024-02-18T20:19:06.581Z,9.80
2024-02-18T20:21:48.889Z,10.00
2024-02-18T20:24:39.722Z,9.70
2024-02-18T20:27:15.756Z,5.90
2024-02-18T20:29:50.397Z,9.60
2024-02-18T20:32:30.961Z,10.20
2024-02-18T20:35:27.391Z,9.90
2024-02-18T20:38:10.564Z,9.50
2024-02-18T20:40:58.566Z,9.90
2024-02-18T20:43:38.412Z,9.40
2024-02-18T20:46:20.988Z,9.10
2024-02-18T20:48:57.597Z,10.80
2024-02-18T20:51:38.687Z,10.00
2024-02-18T20:54:23.172Z,11.10
2024-02-18T20:57:04.333Z,9.70
2024-02-18T20:59:47.167Z,10.50
2024-02-18T21:02:30.603Z,10.90
2024-02-18T21:05:12.018Z,10.90
2024-02-18T21:07:48.082Z,9.60
2024-02-18T21:10:27.740Z,10.70
2024-02-18T21:13:01.869Z,11.90
2024-02-18T21:15:40.776Z,10.70
2024-02-18T21:18:15.122Z,11.60
2024-02-18T21:20:49.602Z,12.10
2024-02-18T21:23:24.216Z,11.60
2024-02-18T21:25:59.700Z,9.90
2024-02-18T21:28:39.153Z,9.90
2024-02-18T21:31:15.239Z,8.50
2024-02-18T21:33:50.426Z,10.60
2024-02-18T21:36:31.632Z,10.20
2024-02-18T21:39:14.004Z,8.30
2024-02-18T21:41:51.775Z,10.70
2024-02-18T21:44:26.476Z,11.10
2024-02-18T21:47:01.543Z,10.70
2024-02-18T21:49:38.729Z,10.90
2024-02-18T21:52:14.646Z,11.00
2024-02-18T21:55:01.490Z,10.60
2024-02-18T21:57:37.104Z,9.80
2024-02-18T22:00:17.142Z,10.40
2024-02-18T22:02:51.802Z,10.20
2024-02-18T22:05:28.341Z,10.70
2024-02-18T22:08:03.370Z,10.40
2024-02-18T22:10:43.383Z,10.60
2024-02-18T22:13:20.195Z,10.20
2024-02-18T22:15:53.820Z,9.90
2024-02-18T22:18:27.914Z,10.90
2024-02-18T22:21:08.247Z,12.20
2024-02-18T22:23:42.692Z,10.80
2024-02-18T22:26:16.567Z,11.40
2024-02-18T22:28:50.063Z,10.50
2024-02-18T22:31:26.150Z,10.80
2024-02-18T22:33:59.703Z,11.00
2024-02-18T22:36:33.992Z,10.70
2024-02-18T22:39:11.494Z,9.00
2024-02-18T22:41:45.841Z,11.40
2024-02-18T22:44:20.527Z,11.90
2024-02-18T22:46:53.967Z,11.00
2024-02-18T22:49:29.544Z,11.00
2024-02-18T22:52:03.387Z,11.80
2024-02-18T22:54:42.076Z,10.30
2024-02-18T22:57:17.739Z,11.60
2024-02-18T22:59:50.975Z,12.30
2024-02-18T23:02:24.582Z,11.60
2024-02-18T23:04:58.141Z,12.00
2024-02-18T23:07:31.255Z,12.00
2024-02-18T23:10:04.795Z,12.10
2024-02-18T23:12:39.315Z,11.60
2024-02-18T23:15:13.587Z,11.60
2024-02-18T23:17:49.714Z,11.70
2024-02-18T23:20:22.912Z,11.30
2024-02-18T23:22:56.362Z,11.10
2024-02-18T23:25:29.869Z,11.90
2024-02-18T23:28:03.377Z,11.80
2024-02-18T23:30:39.663Z,12.00
2024-02-18T23:33:14.096Z,11.60
2024-02-18T23:35:48.148Z,12.60
2024-02-18T23:38:22.076Z,11.70
2024-02-18T23:41:03.598Z,12.00
2024-02-18T23:43:45.301Z,11.90
2024-02-18T23:46:19.387Z,11.50
2024-02-18T23:48:54.305Z,10.90
2024-02-18T23:51:29.635Z,10.30
2024-02-18T23:54:04.072Z,9.30
2024-02-18T23:56:42.617Z,9.70
2024-02-18T23:59:16.433Z,11.60
